Time;durP1;ratioP1;P1;durP2;ratioP2;P2;SDS_P1;SDS_P2;PMS_P1;PMS_P2;Temp;Humidity;BMP_temperature;BMP_pressure;BME280_temperature;BME280_humidity;BME280_pressure;Samples;Min_cycle;Max_cycle;Signal;HPM_P1;HPM_P2
2021/11/22 00:01:14;;;;;;;3.10;3.00;;;;;;;1.94;100.00;101341.34;4367471;32;20461;-77
2021/11/22 00:03:39;;;;;;;3.30;3.20;;;;;;;1.93;100.00;101336.19;4364967;32;20081;-75
2021/11/22 00:06:04;;;;;;;4.85;4.65;;;;;;;1.84;100.00;101336.22;4383149;32;20395;-75
2021/11/22 00:08:30;;;;;;;3.00;2.90;;;;;;;1.83;100.00;101331.94;4380847;32;20061;-76
2021/11/22 00:10:55;;;;;;;4.75;4.55;;;;;;;1.77;100.00;101338.00;4382140;32;20198;-75
2021/11/22 00:13:20;;;;;;;3.00;2.90;;;;;;;1.38;100.00;101272.66;4376166;32;20150;-75
2021/11/22 00:15:46;;;;;;;2.95;2.85;;;;;;;0.22;100.00;101114.69;4383268;32;20291;-79
2021/11/22 00:18:11;;;;;;;4.35;4.15;;;;;;;1.72;100.00;101334.56;4361520;32;20484;-76
2021/11/22 00:20:36;;;;;;;3.30;3.20;;;;;;;1.90;100.00;101373.28;4389128;32;20122;-76
2021/11/22 00:23:02;;;;;;;5.05;4.85;;;;;;;1.36;100.00;101271.81;4378536;32;20090;-76
2021/11/22 00:25:27;;;;;;;2.87;2.78;;;;;;;2.07;100.00;101373.19;4381629;32;20083;-75
2021/11/22 00:27:52;;;;;;;4.12;3.95;;;;;;;1.85;100.00;101332.78;4365330;32;20143;-77
2021/11/22 00:30:18;;;;;;;3.40;3.30;;;;;;;2.20;100.00;101376.56;4375288;32;20062;-76
2021/11/22 00:32:45;;;;;;;3.00;2.90;;;;;;;2.23;100.00;101376.56;4364297;32;20457;-75
2021/11/22 00:35:11;;;;;;;2.90;2.80;;;;;;;1.76;100.00;101316.47;4369466;32;20053;-76
2021/11/22 00:37:37;;;;;;;2.90;2.80;;;;;;;2.31;100.00;101374.78;4363232;32;20068;-75
2021/11/22 00:40:04;;;;;;;4.87;4.68;;;;;;;2.11;100.00;101343.81;4387259;32;20566;-77
2021/11/22 00:42:30;;;;;;;3.12;3.03;;;;;;;2.27;100.00;101378.25;4381130;32;20091;-76
2021/11/22 00:44:56;;;;;;;5.05;4.85;;;;;;;1.98;100.00;101344.78;4382865;32;20572;-79
2021/11/22 00:47:22;;;;;;;3.10;3.00;;;;;;;1.50;100.00;101275.19;4385892;32;20061;-75
2021/11/22 00:49:47;;;;;;;3.25;3.15;;;;;;;2.09;100.00;101389.59;4383305;32;20069;-78
2021/11/22 00:52:13;;;;;;;3.25;3.15;;;;;;;2.03;100.00;101392.22;4370452;32;20064;-76
2021/11/22 00:54:38;;;;;;;3.30;3.20;;;;;;;1.75;100.00;101358.72;4380770;32;20450;-75
2021/11/22 00:57:04;;;;;;;6.05;5.72;;;;;;;1.17;100.00;101266.72;4367174;32;20740;-76
2021/11/22 00:59:29;;;;;;;3.12;3.03;;;;;;;1.97;100.00;101412.97;4389221;32;20073;-75
2021/11/22 01:01:54;;;;;;;5.32;5.12;;;;;;;1.86;100.00;101379.34;4395378;32;20321;-76
2021/11/22 01:04:20;;;;;;;3.10;3.00;;;;;;;2.06;100.00;101391.31;4395657;32;20643;-75
2021/11/22 01:06:46;;;;;;;3.05;2.95;;;;;;;2.32;100.00;101417.91;4381068;32;20473;-75
2021/11/22 01:09:11;;;;;;;2.95;2.85;;;;;;;2.46;100.00;101422.16;4368748;32;20076;-75
2021/11/22 01:11:37;;;;;;;3.05;2.95;;;;;;;2.55;100.00;101422.94;4371086;32;20069;-77
2021/11/22 01:14:03;;;;;;;4.87;4.68;;;;;;;2.65;100.00;101425.47;4384083;32;20139;-76
2021/11/22 01:16:30;;;;;;;3.30;3.20;;;;;;;2.73;100.00;101432.31;4382125;32;20733;-77
2021/11/22 01:18:56;;;;;;;5.50;5.30;;;;;;;2.87;100.00;101439.12;4391270;32;20606;-77
2021/11/22 01:21:21;;;;;;;3.20;3.10;;;;;;;2.13;100.00;101315.34;4371776;32;20565;-77
2021/11/22 01:23:46;;;;;;;3.10;3.00;;;;;;;3.05;100.00;101448.44;4382750;32;20069;-77
2021/11/22 01:26:12;;;;;;;2.95;2.85;;;;;;;3.14;100.00;101451.81;4375073;32;20817;-75
2021/11/22 01:28:37;;;;;;;3.50;3.40;;;;;;;3.08;100.00;101420.75;4380886;32;20068;-76
2021/11/22 01:31:02;;;;;;;6.00;5.72;;;;;;;3.33;100.00;101462.06;4378120;32;20064;-76
2021/11/22 01:33:28;;;;;;;3.00;2.90;;;;;;;3.44;100.00;101467.97;4395570;32;20073;-76
2021/11/22 01:35:54;;;;;;;3.10;3.00;;;;;;;3.45;100.00;101435.97;4383089;32;20081;-76
2021/11/22 01:38:19;;;;;;;3.15;3.05;;;;;;;3.69;100.00;101473.78;4384370;32;20357;-76
2021/11/22 01:40:46;;;;;;;3.08;2.97;;;;;;;3.72;100.00;101473.72;4394086;32;20846;-76
2021/11/22 01:43:14;;;;;;;3.30;3.20;;;;;;;3.51;100.00;101445.44;4369369;32;20069;-77
2021/11/22 01:45:49;;;;;;;3.20;3.10;;;;;;;3.74;100.00;101478.91;4379725;32;20085;-76
2021/11/22 01:48:15;;;;;;;3.80;3.60;;;;;;;3.70;100.00;101479.81;4389189;32;20222;-77
2021/11/22 01:50:41;;;;;;;3.22;3.12;;;;;;;3.09;100.00;101383.59;4391247;32;20238;-75
2021/11/22 01:53:06;;;;;;;4.65;4.45;;;;;;;3.75;100.00;101478.03;4363702;32;20486;-75
2021/11/22 01:55:32;;;;;;;3.20;3.10;;;;;;;3.76;100.00;101488.38;4382723;32;20093;-76
2021/11/22 01:57:58;;;;;;;4.75;4.55;;;;;;;3.76;100.00;101484.94;4358143;32;20450;-77
2021/11/22 02:00:36;;;;;;;3.30;3.20;;;;;;;3.43;100.00;101436.84;4366083;32;20150;-79
2021/11/22 02:03:02;;;;;;;5.37;5.07;;;;;;;3.56;100.00;101459.19;4394841;32;20239;-76
2021/11/22 02:05:28;;;;;;;3.10;3.00;;;;;;;3.90;100.00;101511.59;4379926;32;20119;-77
2021/11/22 02:07:53;;;;;;;4.82;4.62;;;;;;;3.70;100.00;101485.00;4381305;32;20093;-76
2021/11/22 02:10:19;;;;;;;3.10;3.00;;;;;;;3.91;100.00;101504.66;4382706;32;20072;-77
2021/11/22 02:12:44;;;;;;;3.08;2.97;;;;;;;3.74;100.00;101486.69;4382364;32;20080;-78
2021/11/22 02:15:10;;;;;;;3.30;3.20;;;;;;;2.79;100.00;101356.25;4380921;32;20068;-77
2021/11/22 02:17:36;;;;;;;3.75;3.55;;;;;;;3.94;100.00;101518.47;4380892;32;20056;-76
2021/11/22 02:20:04;;;;;;;4.95;4.75;;;;;;;3.91;100.00;101522.84;4388262;32;20110;-76
2021/11/22 02:22:30;;;;;;;3.00;2.90;;;;;;;3.46;100.00;101455.84;4382652;32;20072;-76
2021/11/22 02:24:57;;;;;;;5.03;4.82;;;;;;;3.58;100.00;101481.66;4385598;32;20078;-77
2021/11/22 02:27:22;;;;;;;2.92;2.83;;;;;;;3.25;100.00;101419.72;4380167;32;20069;-77
2021/11/22 02:29:47;;;;;;;3.03;2.92;;;;;;;3.92;100.00;101533.22;4378234;32;20393;-79
2021/11/22 02:32:13;;;;;;;3.72;3.53;;;;;;;3.78;100.00;101512.59;4367087;32;20417;-76
2021/11/22 02:34:38;;;;;;;2.92;2.83;;;;;;;3.96;100.00;101545.28;4387844;32;20105;-77
2021/11/22 02:37:04;;;;;;;4.97;4.68;;;;;;;3.86;100.00;101527.25;4379385;32;20168;-77
2021/11/22 02:39:29;;;;;;;3.30;3.20;;;;;;;2.17;100.00;101241.94;4377760;32;20096;-76
2021/11/22 02:41:55;;;;;;;5.18;4.97;;;;;;;3.96;100.00;101544.44;4378709;32;20068;-76
2021/11/22 02:44:20;;;;;;;3.15;3.05;;;;;;;3.85;100.00;101520.31;4369505;32;20079;-76
2021/11/22 02:46:45;;;;;;;3.72;3.58;;;;;;;4.00;100.00;101546.13;4384880;32;20119;-77
2021/11/22 02:49:11;;;;;;;2.90;2.80;;;;;;;3.90;100.00;101526.31;4363276;32;20385;-77
2021/11/22 02:51:39;;;;;;;3.35;3.25;;;;;;;4.03;100.00;101553.88;4393695;32;20351;-77
2021/11/22 02:54:04;;;;;;;4.57;4.32;;;;;;;3.56;100.00;101475.62;4396194;32;20065;-77
2021/11/22 02:56:31;;;;;;;3.58;3.37;;;;;;;4.07;100.00;101557.28;4360372;32;20088;-77
2021/11/22 02:58:57;;;;;;;4.70;4.50;;;;;;;3.91;100.00;101533.22;4383620;32;20586;-80
2021/11/22 03:01:22;;;;;;;3.22;3.12;;;;;;;4.10;100.00;101563.31;4366540;32;20112;-76
2021/11/22 03:03:48;;;;;;;3.25;3.15;;;;;;;3.62;100.00;101486.81;4380672;32;20085;-77
2021/11/22 03:06:14;;;;;;;3.15;3.03;;;;;;;3.67;100.00;101511.87;4364405;32;20134;-79
2021/11/22 03:08:40;;;;;;;3.00;2.90;;;;;;;3.97;100.00;101547.03;4377844;32;20175;-77
2021/11/22 03:11:05;;;;;;;4.72;4.53;;;;;;;4.16;100.00;101576.22;4370834;32;20093;-78
2021/11/22 03:13:31;;;;;;;3.15;3.05;;;;;;;4.18;100.00;101581.41;4367051;32;20079;-76
2021/11/22 03:15:56;;;;;;;5.35;5.12;;;;;;;4.19;100.00;101580.56;4363709;32;20627;-76
2021/11/22 03:18:21;;;;;;;3.15;3.05;;;;;;;4.19;100.00;101584.00;4383953;32;20084;-78
2021/11/22 03:20:47;;;;;;;3.30;3.10;;;;;;;4.22;100.00;101593.50;4380208;32;20083;-79
2021/11/22 03:23:12;;;;;;;2.90;2.80;;;;;;;4.22;100.00;101587.44;4367737;32;20065;-79
2021/11/22 03:25:38;;;;;;;3.30;3.20;;;;;;;4.23;100.00;101590.03;4379016;32;20841;-77
2021/11/22 03:28:03;;;;;;;4.47;4.28;;;;;;;4.25;100.00;101600.38;4370678;32;20131;-75
2021/11/22 03:30:29;;;;;;;3.00;2.90;;;;;;;4.27;100.00;101601.22;4392534;32;20120;-76
2021/11/22 03:32:54;;;;;;;4.25;4.05;;;;;;;4.29;100.00;101600.34;4362802;32;20675;-77
2021/11/22 03:35:19;;;;;;;3.10;3.00;;;;;;;4.30;100.00;101606.41;4380958;32;20492;-75
2021/11/22 03:37:46;;;;;;;3.50;3.40;;;;;;;4.31;100.00;101603.78;4369114;32;20076;-76
2021/11/22 03:40:12;;;;;;;3.10;3.00;;;;;;;4.34;100.00;101608.09;4367288;32;20073;-77
2021/11/22 03:42:41;;;;;;;3.10;3.00;;;;;;;4.37;100.00;101613.22;4382362;32;20072;-77
2021/11/22 03:45:09;;;;;;;4.60;4.40;;;;;;;3.77;100.00;101513.47;4383134;32;20673;-76
2021/11/22 03:47:34;;;;;;;3.10;3.00;;;;;;;4.35;100.00;101618.47;4379027;32;20162;-76
2021/11/22 03:49:59;;;;;;;3.70;3.50;;;;;;;4.35;100.00;101623.66;4386111;32;20529;-75
2021/11/22 03:52:25;;;;;;;3.33;3.22;;;;;;;4.36;100.00;101633.16;4383458;32;20675;-75
2021/11/22 03:54:50;;;;;;;4.45;4.18;;;;;;;4.21;100.00;101604.78;4379870;32;20208;-78
2021/11/22 03:57:16;;;;;;;3.10;3.00;;;;;;;4.39;100.00;101638.34;4379871;32;20080;-75
2021/11/22 03:59:41;;;;;;;3.20;3.10;;;;;;;4.40;100.00;101640.03;4380643;32;20580;-75
2021/11/22 04:02:06;;;;;;;4.15;3.95;;;;;;;4.42;100.00;101642.63;4393856;32;20336;-75
2021/11/22 04:04:32;;;;;;;3.20;3.10;;;;;;;4.43;100.00;101648.69;4375766;32;20328;-75
2021/11/22 04:07:00;;;;;;;4.93;4.72;;;;;;;4.17;100.00;101608.28;4362722;32;20057;-78
2021/11/22 04:09:25;;;;;;;3.10;3.00;;;;;;;3.97;100.00;101577.34;4398808;32;20065;-75
2021/11/22 04:11:51;;;;;;;4.00;3.80;;;;;;;3.08;100.00;101526.22;4380114;32;20073;-75
2021/11/22 04:14:16;;;;;;;2.97;2.87;;;;;;;4.27;100.00;101629.81;4360030;32;20374;-74
2021/11/22 04:16:42;;;;;;;3.00;2.90;;;;;;;4.36;100.00;101648.75;4393473;32;20097;-76
2021/11/22 04:19:08;;;;;;;3.87;3.67;;;;;;;4.36;100.00;101645.31;4365960;32;20649;-76
2021/11/22 04:21:34;;;;;;;3.08;2.97;;;;;;;4.52;100.00;101680.63;4365371;32;20069;-76
2021/11/22 04:23:59;;;;;;;4.65;4.45;;;;;;;4.52;100.00;101678.03;4381464;32;20077;-76
2021/11/22 04:26:24;;;;;;;3.30;3.20;;;;;;;4.55;100.00;101688.41;4360532;32;20093;-75
2021/11/22 04:28:50;;;;;;;3.92;3.75;;;;;;;4.50;100.00;101673.75;4381608;32;20077;-77
2021/11/22 04:31:15;;;;;;;3.40;3.30;;;;;;;4.60;100.00;101690.94;4364624;32;20097;-77
2021/11/22 04:33:40;;;;;;;3.15;3.05;;;;;;;4.61;100.00;101705.69;4379898;32;20060;-75
2021/11/22 04:36:06;;;;;;;3.53;3.42;;;;;;;4.62;100.00;101694.41;4394965;32;20338;-76
2021/11/22 04:38:32;;;;;;;3.05;2.95;;;;;;;4.29;100.00;101649.72;4393281;32;20075;-76
2021/11/22 04:40:58;;;;;;;4.47;4.28;;;;;;;4.12;100.00;101620.44;4395112;32;20435;-75
2021/11/22 04:43:23;;;;;;;3.00;2.90;;;;;;;4.42;100.00;101679.03;4376404;32;20087;-75
2021/11/22 04:45:49;;;;;;;4.07;3.87;;;;;;;4.66;100.00;101708.22;4394694;32;20665;-79
2021/11/22 04:48:14;;;;;;;3.20;3.10;;;;;;;4.65;100.00;101717.78;4361853;32;20057;-76
2021/11/22 04:50:39;;;;;;;3.58;3.47;;;;;;;4.64;100.00;101721.25;4384917;32;20146;-76
2021/11/22 04:53:05;;;;;;;4.65;4.45;;;;;;;4.53;100.00;101697.09;4382731;32;20493;-77
2021/11/22 04:55:31;;;;;;;3.00;2.90;;;;;;;4.66;100.00;101723.84;4363833;32;20224;-77
2021/11/22 04:57:56;;;;;;;5.07;4.87;;;;;;;4.68;100.00;101733.31;4376306;32;20096;-75
2021/11/22 05:00:22;;;;;;;3.20;3.10;;;;;;;4.25;100.00;101654.94;4373616;32;20084;-75
2021/11/22 05:02:48;;;;;;;3.05;2.95;;;;;;;4.72;100.00;101739.34;4378512;32;20578;-77
2021/11/22 05:05:14;;;;;;;3.00;2.90;;;;;;;4.75;99.38;101734.09;4365946;32;20135;-76
2021/11/22 05:07:39;;;;;;;3.00;2.90;;;;;;;4.75;98.62;101736.72;4364639;32;20402;-76
2021/11/22 05:10:05;;;;;;;5.68;5.40;;;;;;;4.77;98.12;101743.62;4374253;32;20065;-77
2021/11/22 05:12:31;;;;;;;3.00;2.90;;;;;;;4.75;97.67;101745.41;4382745;32;20145;-76
2021/11/22 05:14:56;;;;;;;4.60;4.40;;;;;;;4.57;98.29;101717.84;4385574;32;20065;-76
2021/11/22 05:17:21;;;;;;;3.10;3.00;;;;;;;4.66;97.94;101729.03;4385678;32;20068;-75
2021/11/22 05:19:47;;;;;;;3.10;3.00;;;;;;;4.77;96.98;101747.97;4388741;32;20081;-77
2021/11/22 05:22:18;;;;;;;3.35;3.25;;;;;;;4.77;97.02;101750.56;4366797;32;20080;-76
2021/11/22 05:24:48;;;;;;;3.03;2.92;;;;;;;4.25;96.68;101670.53;4381146;32;20089;-75
2021/11/22 05:27:27;;;;;;;3.60;3.50;;;;;;;4.77;96.60;101774.84;4379395;32;20112;-75
2021/11/22 05:29:53;;;;;;;4.40;4.20;;;;;;;4.19;96.54;101671.47;4384929;32;20212;-75
2021/11/22 05:32:19;;;;;;;3.30;3.20;;;;;;;4.64;96.75;101751.59;4366793;32;20064;-77
2021/11/22 05:34:45;;;;;;;3.70;3.50;;;;;;;4.55;96.32;101743.00;4379412;32;20062;-77
2021/11/22 05:37:10;;;;;;;3.50;3.37;;;;;;;4.64;95.36;101777.59;4368873;32;20605;-76
2021/11/22 05:39:36;;;;;;;3.50;3.30;;;;;;;4.25;95.87;101717.31;4385543;32;20065;-76
2021/11/22 05:42:02;;;;;;;5.37;5.18;;;;;;;4.57;96.00;101781.97;4377928;32;21238;-76
2021/11/22 05:44:27;;;;;;;3.10;3.00;;;;;;;4.52;95.45;101791.56;4386809;32;20080;-75
2021/11/22 05:46:53;;;;;;;4.72;4.53;;;;;;;4.33;95.77;101773.53;4395771;32;20092;-75
2021/11/22 05:49:18;;;;;;;3.08;2.97;;;;;;;4.31;95.84;101793.50;4389954;32;20484;-77
2021/11/22 05:51:45;;;;;;;3.05;2.95;;;;;;;4.38;94.04;101791.69;4365128;32;20151;-76
2021/11/22 05:54:10;;;;;;;3.33;3.22;;;;;;;3.89;94.42;101728.03;4367861;32;20210;-76
2021/11/22 05:56:37;;;;;;;2.92;2.83;;;;;;;4.24;94.36;101804.78;4381969;32;20127;-76
2021/11/22 05:59:02;;;;;;;4.40;4.10;;;;;;;4.19;94.33;101806.59;4380798;32;20146;-76
2021/11/22 06:01:28;;;;;;;3.30;3.20;;;;;;;4.13;95.10;101809.19;4384430;32;20074;-75
2021/11/22 06:03:53;;;;;;;4.43;4.22;;;;;;;4.09;94.91;101821.38;4378119;32;20069;-77
2021/11/22 06:06:18;;;;;;;3.10;3.00;;;;;;;3.98;94.83;101818.84;4373061;32;20072;-76
2021/11/22 06:08:44;;;;;;;3.22;3.12;;;;;;;3.77;95.25;101806.00;4383978;32;20226;-76
2021/11/22 06:11:09;;;;;;;3.05;2.95;;;;;;;3.62;95.87;101788.78;4361296;32;20100;-79
2021/11/22 06:13:34;;;;;;;2.90;2.80;;;;;;;3.83;96.17;101829.34;4387212;32;20641;-75
2021/11/22 06:16:00;;;;;;;4.40;4.20;;;;;;;3.80;95.99;101830.19;4377155;32;20088;-78
2021/11/22 06:18:25;;;;;;;3.08;2.97;;;;;;;3.70;96.46;101838.91;4399541;32;20146;-76
2021/11/22 06:20:51;;;;;;;3.30;3.20;;;;;;;3.75;97.05;101841.50;4382917;32;20338;-78
2021/11/22 06:23:16;;;;;;;3.10;3.00;;;;;;;3.58;97.07;101824.25;4382842;32;20529;-77
2021/11/22 06:25:41;;;;;;;3.00;2.90;;;;;;;3.68;96.95;101824.22;4383999;32;20088;-76
2021/11/22 06:28:07;;;;;;;2.80;2.70;;;;;;;3.82;96.40;101848.38;4383096;32;20029;-76
2021/11/22 06:30:32;;;;;;;3.15;3.05;;;;;;;3.80;95.99;101850.13;4382434;32;20079;-77
2021/11/22 06:32:58;;;;;;;4.50;4.30;;;;;;;3.81;95.76;101851.84;4395018;32;20207;-76
2021/11/22 06:35:23;;;;;;;3.12;3.03;;;;;;;2.99;96.38;101711.28;4386785;32;20070;-77
2021/11/22 06:37:50;;;;;;;3.53;3.33;;;;;;;3.83;96.14;101862.22;4365335;32;20088;-76
2021/11/22 06:40:16;;;;;;;2.92;2.83;;;;;;;2.46;95.79;101669.12;4378676;32;20065;-76
2021/11/22 06:42:41;;;;;;;3.20;3.10;;;;;;;3.62;96.31;101852.81;4388805;32;20080;-77
2021/11/22 06:45:07;;;;;;;4.05;3.85;;;;;;;3.74;96.58;101881.31;4377053;32;20124;-76
2021/11/22 06:47:33;;;;;;;3.00;2.90;;;;;;;3.82;96.06;101878.69;4381205;32;20080;-76
2021/11/22 06:49:59;;;;;;;5.12;4.93;;;;;;;3.85;95.51;101882.13;4380882;32;20077;-76
2021/11/22 06:52:24;;;;;;;3.40;3.30;;;;;;;3.30;95.79;101801.91;4383492;32;21074;-76
2021/11/22 06:54:50;;;;;;;3.47;3.33;;;;;;;3.86;95.86;101890.78;4382505;32;20065;-78
2021/11/22 06:57:15;;;;;;;4.32;3.15;;;;;;;2.98;95.83;101748.44;4369498;32;20084;-75
2021/11/22 06:59:42;;;;;;;2.83;2.72;;;;;;;3.66;95.93;101857.13;4383691;32;20072;-76
2021/11/22 07:02:12;;;;;;;3.50;3.40;;;;;;;3.87;95.78;101887.28;4381428;32;20445;-77
2021/11/22 07:04:38;;;;;;;2.90;2.80;;;;;;;3.85;96.14;101900.31;4396302;32;20093;-76
2021/11/22 07:07:04;;;;;;;4.43;4.22;;;;;;;3.84;96.05;101908.09;4376718;32;20191;-74
2021/11/22 07:09:29;;;;;;;2.85;2.75;;;;;;;3.84;96.14;101910.69;4380844;32;20068;-75
2021/11/22 07:11:54;;;;;;;4.15;3.95;;;;;;;3.66;96.70;101885.69;4382913;32;20384;-75
2021/11/22 07:14:20;;;;;;;2.90;2.80;;;;;;;3.92;97.15;101916.72;4371027;32;20069;-75
2021/11/22 07:16:45;;;;;;;3.00;2.90;;;;;;;3.51;96.41;101838.16;4386131;32;20150;-75
2021/11/22 07:19:11;;;;;;;2.95;2.85;;;;;;;3.51;96.03;101842.50;4378743;32;20228;-74
2021/11/22 07:21:36;;;;;;;3.17;3.08;;;;;;;3.49;96.05;101837.31;4386845;32;20979;-76
2021/11/22 07:24:01;;;;;;;4.53;4.32;;;;;;;4.08;95.27;101939.13;4382938;32;20137;-75
2021/11/22 07:26:27;;;;;;;2.97;2.87;;;;;;;4.08;95.65;101943.47;4366286;32;20068;-75
2021/11/22 07:28:52;;;;;;;3.58;3.45;;;;;;;4.09;95.12;101958.16;4380893;32;20148;-75
2021/11/22 07:31:18;;;;;;;3.10;3.00;;;;;;;4.12;94.95;101960.75;4363566;32;20061;-75
2021/11/22 07:33:43;;;;;;;2.90;2.80;;;;;;;4.06;94.88;101955.59;4385619;32;20087;-74
2021/11/22 07:36:08;;;;;;;3.67;3.58;;;;;;;4.18;94.08;101982.37;4362098;32;20377;-75
2021/11/22 07:38:35;;;;;;;2.87;2.78;;;;;;;4.10;93.49;101965.09;4382067;32;20068;-75
2021/11/22 07:41:01;;;;;;;4.65;4.45;;;;;;;4.23;93.58;101982.37;4383767;32;20141;-76
2021/11/22 07:43:26;;;;;;;2.87;2.78;;;;;;;2.91;92.85;101768.34;4362800;32;20089;-75
2021/11/22 07:45:52;;;;;;;16.25;15.45;;;;;;;3.13;92.85;101794.22;4350165;32;20567;-75
2021/11/22 07:48:17;;;;;;;3.17;3.08;;;;;;;4.34;92.27;101998.75;4331148;32;20575;-76
2021/11/22 07:50:43;;;;;;;2.92;2.83;;;;;;;4.37;92.70;101990.94;4380363;32;20094;-76
2021/11/22 07:53:08;;;;;;;4.93;4.70;;;;;;;4.00;91.98;101926.19;4371119;32;20223;-76
2021/11/22 07:55:34;;;;;;;2.90;2.80;;;;;;;4.21;91.09;101960.72;4378158;32;20109;-74
2021/11/22 07:57:59;;;;;;;5.47;5.00;;;;;;;4.49;91.42;101996.94;4378844;32;20076;-75
2021/11/22 08:00:25;;;;;;;2.80;2.70;;;;;;;4.51;91.44;102011.66;4377419;32;20064;-75
2021/11/22 08:02:51;;;;;;;3.33;3.22;;;;;;;4.54;91.14;102018.56;4389602;32;20069;-77
2021/11/22 08:05:16;;;;;;;3.17;3.08;;;;;;;3.77;91.46;101908.13;4363623;32;20077;-74
2021/11/22 08:07:42;;;;;;;3.28;3.17;;;;;;;4.46;92.05;102020.37;4375030;32;20199;-74
2021/11/22 08:10:26;;;;;;;4.10;3.90;;;;;;;4.36;91.88;102020.41;4377227;32;20165;-74
2021/11/22 08:12:53;;;;;;;4.60;4.30;;;;;;;4.35;91.76;102023.88;4364699;32;20069;-75
2021/11/22 08:15:19;;;;;;;3.03;2.92;;;;;;;4.13;91.39;101997.13;4362487;32;20604;-73
2021/11/22 08:17:44;;;;;;;3.78;3.58;;;;;;;4.33;91.12;102046.41;4379910;32;20080;-75
2021/11/22 08:20:10;;;;;;;4.70;4.45;;;;;;;4.39;91.10;102058.53;4374486;32;20087;-73
2021/11/22 08:22:36;;;;;;;3.00;2.90;;;;;;;4.37;90.88;102052.44;4376979;32;20671;-73
2021/11/22 08:25:01;;;;;;;4.43;4.22;;;;;;;4.34;90.70;102057.66;4383887;32;20124;-74
2021/11/22 08:27:28;;;;;;;3.83;3.58;;;;;;;4.38;89.36;102057.63;4377136;32;20158;-73
2021/11/22 08:29:53;;;;;;;4.25;4.05;;;;;;;4.41;89.00;102067.19;4379041;32;20692;-74
2021/11/22 08:32:19;;;;;;;3.20;3.10;;;;;;;4.31;89.52;102055.97;4372983;32;20101;-73
2021/11/22 08:34:44;;;;;;;2.95;2.85;;;;;;;4.41;88.68;102069.78;4383457;32;20888;-72
2021/11/22 08:37:10;;;;;;;3.15;3.05;;;;;;;4.24;88.47;102059.44;4363534;32;20073;-73
2021/11/22 08:39:35;;;;;;;2.87;2.78;;;;;;;4.46;89.59;102083.59;4368581;32;20078;-77
2021/11/22 08:42:02;;;;;;;4.85;4.65;;;;;;;4.44;89.65;102084.50;4375515;32;20092;-75
2021/11/22 08:44:28;;;;;;;3.75;3.58;;;;;;;3.66;88.03;101960.97;4386071;32;20145;-74
2021/11/22 08:46:53;;;;;;;4.37;4.20;;;;;;;4.49;88.15;102094.00;4378109;32;20064;-74
2021/11/22 08:49:19;;;;;;;3.12;3.03;;;;;;;4.53;88.27;102090.50;4371627;32;20083;-76
2021/11/22 08:51:44;;;;;;;3.22;3.12;;;;;;;4.60;87.78;102093.94;4377148;32;20085;-77
2021/11/22 08:54:10;;;;;;;5.62;5.43;;;;;;;4.58;88.19;102100.87;4361458;32;20465;-76
2021/11/22 08:56:36;;;;;;;3.42;3.30;;;;;;;3.29;88.40;101872.84;4375839;32;20691;-76
2021/11/22 08:59:01;;;;;;;5.00;4.80;;;;;;;3.60;87.82;101930.69;4361352;32;20102;-77
2021/11/22 09:01:27;;;;;;;3.58;3.40;;;;;;;4.56;88.19;102107.81;4367624;32;20650;-76
2021/11/22 09:03:52;;;;;;;3.87;3.72;;;;;;;3.56;88.66;101948.00;4376649;32;20065;-74
2021/11/22 09:06:19;;;;;;;3.05;2.95;;;;;;;4.54;88.71;102119.97;4366511;32;20768;-76
2021/11/22 09:08:45;;;;;;;2.92;2.83;;;;;;;4.19;89.05;102053.41;4373486;32;20066;-75
2021/11/22 09:11:10;;;;;;;3.92;3.72;;;;;;;4.64;88.45;102121.66;4358337;32;20087;-76
2021/11/22 09:13:35;;;;;;;3.10;3.00;;;;;;;4.60;88.65;102119.94;4383901;32;20065;-76
2021/11/22 09:16:01;;;;;;;4.53;4.32;;;;;;;4.70;88.40;102121.63;4391414;32;20138;-76
2021/11/22 09:18:26;;;;;;;3.40;3.30;;;;;;;4.76;88.28;102123.34;4377687;32;20078;-76
2021/11/22 09:20:52;;;;;;;3.50;3.40;;;;;;;3.04;87.70;101828.81;4380376;32;20085;-78
2021/11/22 09:23:18;;;;;;;3.55;3.40;;;;;;;4.78;86.97;102140.66;4358531;32;20689;-75
2021/11/22 09:25:43;;;;;;;3.53;3.37;;;;;;;4.73;86.64;102126.81;4385094;32;20065;-75
2021/11/22 09:28:10;;;;;;;3.50;3.30;;;;;;;4.46;87.29;102081.00;4364127;32;20642;-75
2021/11/22 09:30:35;;;;;;;3.20;3.10;;;;;;;4.98;86.86;102148.34;4393769;32;20421;-76
2021/11/22 09:33:01;;;;;;;5.57;5.28;;;;;;;5.00;86.11;102156.16;4372055;32;20078;-74
2021/11/22 09:35:27;;;;;;;3.20;3.10;;;;;;;4.85;85.23;102162.31;4378695;32;20154;-72
2021/11/22 09:37:53;;;;;;;4.20;4.00;;;;;;;4.40;85.24;102089.69;4386410;32;20066;-75
2021/11/22 09:40:19;;;;;;;3.40;3.30;;;;;;;4.92;85.40;102140.59;4361711;32;20239;-74
2021/11/22 09:42:44;;;;;;;3.30;3.20;;;;;;;4.61;84.67;102085.28;4373640;32;20181;-75
2021/11/22 09:45:11;;;;;;;3.75;3.55;;;;;;;4.73;83.58;102103.41;4368185;32;20065;-74
2021/11/22 09:47:37;;;;;;;3.58;3.40;;;;;;;5.07;83.57;102167.38;4391292;32;20100;-73
2021/11/22 09:50:03;;;;;;;4.93;4.72;;;;;;;5.04;83.25;102172.63;4379713;32;20085;-74
2021/11/22 09:52:28;;;;;;;4.05;3.60;;;;;;;4.99;83.57;102167.41;4379797;32;20065;-77
2021/11/22 09:54:55;;;;;;;4.57;4.37;;;;;;;4.78;84.26;102130.25;4374711;32;20693;-75
2021/11/22 09:57:20;;;;;;;3.20;3.10;;;;;;;5.13;82.76;102175.16;4377609;32;20093;-75
2021/11/22 09:59:45;;;;;;;3.30;3.20;;;;;;;4.72;84.38;102085.22;4377302;32;20088;-75
2021/11/22 10:02:11;;;;;;;3.72;3.62;;;;;;;5.36;83.38;102180.22;4384849;32;20115;-77
2021/11/22 10:04:36;;;;;;;3.10;3.00;;;;;;;5.11;82.57;102115.34;4398410;32;20358;-76
2021/11/22 10:07:10;;;;;;;5.60;5.32;;;;;;;5.26;82.42;102119.56;4375514;32;20081;-76
2021/11/22 10:09:41;;;;;;;3.30;3.20;;;;;;;5.60;79.55;102176.59;4382988;32;20073;-74
2021/11/22 10:12:09;;;;;;;4.43;4.22;;;;;;;5.73;79.98;102174.75;4392627;32;20462;-76
2021/11/22 10:14:41;;;;;;;3.50;3.40;;;;;;;5.87;79.48;102182.44;4399831;32;20109;-76
2021/11/22 10:17:27;;;;;;;4.85;4.65;;;;;;;6.17;78.72;102183.94;4391884;32;20108;-75
2021/11/22 10:20:11;;;;;;;3.70;3.60;;;;;;;5.03;77.82;102001.75;4391863;32;20183;-76
2021/11/22 10:22:51;;;;;;;3.40;3.30;;;;;;;6.22;80.13;102184.75;4396044;32;21014;-74
2021/11/22 10:25:32;;;;;;;3.42;3.33;;;;;;;5.99;78.38;102169.31;4410627;32;20079;-76
2021/11/22 10:28:12;;;;;;;5.10;4.90;;;;;;;5.79;79.54;102178.19;4378179;32;20079;-76
2021/11/22 10:30:40;;;;;;;3.17;3.08;;;;;;;4.59;80.28;101981.28;4409016;32;20168;-77
2021/11/22 10:33:06;;;;;;;4.78;4.57;;;;;;;5.38;80.60;102162.84;4377844;32;20057;-76
2021/11/22 10:35:33;;;;;;;3.33;3.22;;;;;;;5.38;81.89;102184.53;4395472;32;20076;-76
2021/11/22 10:38:07;;;;;;;5.15;4.95;;;;;;;5.31;80.87;102188.09;4382405;32;20183;-77
2021/11/22 10:40:35;;;;;;;3.30;3.20;;;;;;;5.27;79.47;102185.47;4366750;32;20582;-76
2021/11/22 10:43:00;;;;;;;5.18;4.97;;;;;;;5.39;78.17;102183.69;4383523;32;20943;-76
2021/11/22 10:45:29;;;;;;;3.95;3.72;;;;;;;5.34;77.54;102145.53;4375250;32;20061;-77
2021/11/22 10:47:56;;;;;;;5.70;5.30;;;;;;;5.46;77.99;102150.66;4392182;32;20131;-76
2021/11/22 10:50:27;;;;;;;3.33;3.22;;;;;;;4.55;79.56;101986.50;4380550;32;20564;-75
2021/11/22 10:52:52;;;;;;;4.78;4.37;;;;;;;5.93;79.14;102187.59;4396254;32;20068;-77
2021/11/22 10:55:18;;;;;;;3.35;3.25;;;;;;;5.86;76.81;102191.16;4365467;32;20079;-76
2021/11/22 10:57:47;;;;;;;3.22;3.12;;;;;;;5.88;75.58;102185.03;4382948;32;20077;-78
2021/11/22 11:00:20;;;;;;;3.60;3.50;;;;;;;5.70;74.67;102185.19;4364842;32;20065;-76
2021/11/22 11:02:46;;;;;;;3.40;3.30;;;;;;;5.76;75.47;102193.81;4405207;32;20085;-76
2021/11/22 11:05:37;;;;;;;3.20;3.10;;;;;;;5.93;74.88;102193.69;4361830;32;20084;-76
2021/11/22 11:08:10;;;;;;;4.50;4.30;;;;;;;5.41;73.21;102095.13;4388609;32;20104;-77
2021/11/22 11:10:35;;;;;;;3.28;3.17;;;;;;;5.73;74.38;102200.78;4392527;32;20418;-77
2021/11/22 11:13:01;;;;;;;4.72;4.53;;;;;;;4.91;75.97;102020.94;4375312;32;20508;-76
2021/11/22 11:15:26;;;;;;;3.20;3.10;;;;;;;5.30;73.71;102071.81;4383744;32;20124;-76
2021/11/22 11:17:52;;;;;;;4.50;4.30;;;;;;;5.87;74.95;102203.28;4381294;32;20056;-76
2021/11/22 11:20:19;;;;;;;3.08;2.97;;;;;;;5.89;73.69;102198.91;4377587;32;20073;-76
2021/11/22 11:22:45;;;;;;;3.10;3.00;;;;;;;5.74;72.56;102166.06;4392727;32;20061;-76
2021/11/22 11:25:11;;;;;;;3.20;3.10;;;;;;;6.09;74.96;102206.59;4362789;32;20084;-75